Time;durP1;ratioP1;P1;durP2;ratioP2;P2;SDS_P1;SDS_P2;PMS_P1;PMS_P2;Temp;Humidity;BMP_temperature;BMP_pressure;BME280_temperature;BME280_humidity;BME280_pressure;Samples;Min_cycle;Max_cycle;Signal;HPM_P1;HPM_P2
2021/10/14 00:01:35;;;;;;;5.50;2.93;;;10.00;99.90;;;;;;4976954;28;20259;-81
2021/10/14 00:04:00;;;;;;;3.67;2.43;;;10.00;99.90;;;;;;4993911;28;20174;-80
2021/10/14 00:06:26;;;;;;;4.70;2.43;;;10.00;99.90;;;;;;4976783;28;20168;-80
2021/10/14 00:08:52;;;;;;;3.93;2.30;;;10.10;99.90;;;;;;4994269;28;20525;-80
2021/10/14 00:11:17;;;;;;;4.90;3.27;;;10.10;99.90;;;;;;4994251;28;20174;-81
2021/10/14 00:13:43;;;;;;;3.70;2.73;;;10.10;99.90;;;;;;4994084;28;20268;-81
2021/10/14 00:16:09;;;;;;;4.67;3.00;;;10.10;99.90;;;;;;4994096;28;20573;-81
2021/10/14 00:18:35;;;;;;;4.00;2.33;;;10.10;99.90;;;;;;4993763;28;20226;-83
2021/10/14 00:21:00;;;;;;;7.27;4.10;;;10.10;99.90;;;;;;4993811;28;20485;-80
2021/10/14 00:23:26;;;;;;;6.57;3.97;;;10.20;99.90;;;;;;4993954;28;20182;-81
2021/10/14 00:25:52;;;;;;;4.90;2.87;;;10.20;99.90;;;;;;4993914;28;20178;-81
2021/10/14 00:28:17;;;;;;;3.93;2.10;;;10.20;99.90;;;;;;4993910;28;20973;-85
2021/10/14 00:30:43;;;;;;;4.50;3.50;;;10.20;99.90;;;;;;4993830;28;20167;-85
2021/10/14 00:33:09;;;;;;;5.40;4.07;;;10.20;99.90;;;;;;4993615;28;20199;-80
2021/10/14 00:35:34;;;;;;;4.80;3.10;;;10.20;99.90;;;;;;4993300;28;20183;-80
2021/10/14 00:38:00;;;;;;;5.57;3.30;;;10.30;99.90;;;;;;4993463;28;20174;-80
2021/10/14 00:40:26;;;;;;;4.23;2.70;;;10.30;99.90;;;;;;4993732;28;20190;-84
2021/10/14 00:42:52;;;;;;;4.60;3.40;;;10.30;99.90;;;;;;4960173;28;20541;-83
2021/10/14 00:45:18;;;;;;;6.93;3.47;;;10.30;99.90;;;;;;4993645;28;20415;-81
2021/10/14 00:47:44;;;;;;;4.13;2.93;;;10.40;99.90;;;;;;4993603;28;20411;-83
2021/10/14 00:50:10;;;;;;;5.07;3.23;;;10.40;99.90;;;;;;4993163;28;20542;-81
2021/10/14 00:52:40;;;;;;;6.33;3.70;;;10.40;99.90;;;;;;4993509;28;20182;-80
2021/10/14 00:55:06;;;;;;;7.33;4.30;;;10.40;99.90;;;;;;4993270;28;20525;-81
2021/10/14 00:57:32;;;;;;;4.83;4.23;;;10.40;99.90;;;;;;4993447;28;20421;-81
2021/10/14 00:59:59;;;;;;;11.33;4.40;;;10.40;99.90;;;;;;4993470;28;20522;-80
2021/10/14 01:02:24;;;;;;;7.70;5.30;;;10.40;99.90;;;;;;4993375;28;20776;-80
2021/10/14 01:04:54;;;;;;;5.20;3.43;;;10.40;99.90;;;;;;4993068;28;20425;-80
2021/10/14 01:07:20;;;;;;;6.07;4.13;;;10.40;99.90;;;;;;4975870;28;20200;-80
2021/10/14 01:09:46;;;;;;;5.73;3.80;;;10.50;99.90;;;;;;4993496;28;20449;-80
2021/10/14 01:12:13;;;;;;;5.87;4.30;;;10.50;99.90;;;;;;4993413;28;20422;-80
2021/10/14 01:14:38;;;;;;;6.70;4.20;;;10.50;99.90;;;;;;4975790;28;20685;-80
2021/10/14 01:17:04;;;;;;;5.80;3.80;;;10.50;99.90;;;;;;4993330;28;20450;-80
2021/10/14 01:19:30;;;;;;;5.07;3.70;;;10.50;99.90;;;;;;4992903;28;20173;-80
2021/10/14 01:21:55;;;;;;;7.43;4.20;;;10.50;99.90;;;;;;4993477;28;20216;-79
2021/10/14 01:24:21;;;;;;;6.47;3.90;;;10.60;99.90;;;;;;4993771;28;20234;-79
2021/10/14 01:26:47;;;;;;;6.17;4.00;;;10.60;99.90;;;;;;4985811;28;20574;-80
2021/10/14 01:29:12;;;;;;;9.97;4.57;;;10.70;99.90;;;;;;5022103;28;20183;-80
2021/10/14 01:31:38;;;;;;;6.70;4.63;;;10.70;99.90;;;;;;5012615;28;20261;-80
2021/10/14 01:34:04;;;;;;;6.10;4.93;;;10.70;99.90;;;;;;5012307;28;20531;-81
2021/10/14 01:36:30;;;;;;;7.53;6.07;;;10.70;99.90;;;;;;5012872;28;20185;-80
2021/10/14 01:38:56;;;;;;;8.07;5.53;;;10.70;99.90;;;;;;5012903;28;20451;-80
2021/10/14 01:41:22;;;;;;;9.03;6.50;;;10.70;99.90;;;;;;4994434;28;20817;-80
2021/10/14 01:43:48;;;;;;;9.80;7.00;;;10.80;99.90;;;;;;5012417;28;20195;-82
2021/10/14 01:46:13;;;;;;;12.97;8.67;;;10.80;99.90;;;;;;4994985;28;20510;-81
2021/10/14 01:48:39;;;;;;;10.70;7.23;;;10.80;99.90;;;;;;5012936;28;20219;-80
2021/10/14 01:51:07;;;;;;;12.13;8.90;;;10.80;99.90;;;;;;5016714;28;20668;-82
2021/10/14 01:53:33;;;;;;;15.50;8.90;;;10.80;99.90;;;;;;5016511;28;20569;-80
2021/10/14 01:55:59;;;;;;;12.13;8.03;;;10.80;99.90;;;;;;5016517;28;20451;-80
2021/10/14 01:58:24;;;;;;;13.27;9.20;;;10.90;99.90;;;;;;5016468;28;20209;-82
2021/10/14 02:00:51;;;;;;;12.80;8.40;;;10.90;99.90;;;;;;5016482;28;20209;-80
2021/10/14 02:03:17;;;;;;;13.80;9.33;;;10.90;99.90;;;;;;4998484;28;20167;-80
2021/10/14 02:05:44;;;;;;;13.43;8.30;;;10.90;99.90;;;;;;5016388;28;20506;-80
2021/10/14 02:08:10;;;;;;;11.13;7.73;;;10.90;99.90;;;;;;5016345;28;20513;-81
2021/10/14 02:10:36;;;;;;;13.57;8.93;;;10.90;99.90;;;;;;5016265;28;20450;-80
2021/10/14 02:13:04;;;;;;;13.00;7.97;;;10.90;99.90;;;;;;5016115;28;20192;-81
2021/10/14 02:15:30;;;;;;;12.33;7.10;;;10.90;99.90;;;;;;5016161;28;20423;-81
2021/10/14 02:17:57;;;;;;;12.30;7.63;;;10.90;99.90;;;;;;5016115;28;20414;-80
2021/10/14 02:20:22;;;;;;;18.43;10.60;;;10.90;99.90;;;;;;5015557;28;20420;-80
2021/10/14 02:22:48;;;;;;;7.97;6.23;;;11.00;99.90;;;;;;5015964;28;20413;-81
2021/10/14 02:25:15;;;;;;;9.07;6.00;;;11.00;99.90;;;;;;5016059;28;20181;-81
2021/10/14 02:27:40;;;;;;;8.43;5.70;;;10.90;99.90;;;;;;5015982;28;20210;-82
2021/10/14 02:30:08;;;;;;;13.30;7.60;;;11.00;99.90;;;;;;5016007;28;20455;-81
2021/10/14 02:32:34;;;;;;;13.27;6.50;;;11.10;99.90;;;;;;5015888;28;20175;-81
2021/10/14 02:35:00;;;;;;;9.00;5.60;;;11.10;99.90;;;;;;5015427;28;21061;-80
2021/10/14 02:37:28;;;;;;;12.90;6.80;;;11.00;99.90;;;;;;5015835;28;20410;-80
2021/10/14 02:39:56;;;;;;;9.93;7.30;;;11.10;99.90;;;;;;4997990;28;20185;-81
2021/10/14 02:42:22;;;;;;;12.63;7.77;;;11.00;99.90;;;;;;5015743;28;20422;-81
2021/10/14 02:44:48;;;;;;;13.30;7.50;;;11.10;99.90;;;;;;5015780;28;20413;-81
2021/10/14 02:47:13;;;;;;;12.00;7.93;;;11.00;99.90;;;;;;5015592;28;20176;-80
2021/10/14 02:49:39;;;;;;;10.40;7.53;;;11.10;99.90;;;;;;4997674;28;20176;-80
2021/10/14 02:52:05;;;;;;;11.33;8.10;;;11.00;99.90;;;;;;5015490;28;20249;-80
2021/10/14 02:54:32;;;;;;;9.00;6.40;;;11.00;99.90;;;;;;5015427;28;20218;-80
2021/10/14 02:56:58;;;;;;;8.67;6.20;;;11.00;99.90;;;;;;5015548;28;20430;-81
2021/10/14 02:59:23;;;;;;;9.10;6.23;;;11.00;99.90;;;;;;5015347;28;20926;-81
2021/10/14 03:01:49;;;;;;;9.70;6.27;;;11.10;99.90;;;;;;5015346;28;20660;-82
2021/10/14 03:04:17;;;;;;;10.40;5.70;;;11.10;99.90;;;;;;5014951;28;20193;-81
2021/10/14 03:06:43;;;;;;;11.50;6.30;;;11.10;99.90;;;;;;4997567;28;20175;-81
2021/10/14 03:09:09;;;;;;;10.60;6.67;;;11.10;99.90;;;;;;4997650;28;20424;-81
2021/10/14 03:11:35;;;;;;;9.90;5.30;;;11.10;99.90;;;;;;5015113;28;20439;-81
2021/10/14 03:14:00;;;;;;;8.77;5.90;;;11.10;99.90;;;;;;5015087;28;20228;-81
2021/10/14 03:16:26;;;;;;;8.13;7.27;;;11.20;99.90;;;;;;5015103;28;20172;-80
2021/10/14 03:18:52;;;;;;;9.47;6.07;;;11.10;99.90;;;;;;5014661;28;20207;-81
2021/10/14 03:21:18;;;;;;;8.13;5.33;;;11.10;99.90;;;;;;5014803;28;20302;-81
2021/10/14 03:23:44;;;;;;;8.10;4.60;;;11.20;99.90;;;;;;4997058;28;20509;-81
2021/10/14 03:26:09;;;;;;;10.20;6.27;;;11.20;99.90;;;;;;5014832;28;20422;-80
2021/10/14 03:28:35;;;;;;;9.03;5.43;;;11.20;99.90;;;;;;4997285;28;20190;-81
2021/10/14 03:31:00;;;;;;;9.30;6.80;;;11.20;99.90;;;;;;5014776;28;20175;-81
2021/10/14 03:33:26;;;;;;;10.40;6.27;;;11.20;99.90;;;;;;5014341;28;20310;-81
2021/10/14 03:35:52;;;;;;;12.07;7.10;;;11.20;99.90;;;;;;5014620;28;20175;-81
2021/10/14 03:38:17;;;;;;;10.33;5.73;;;11.20;99.90;;;;;;5014611;28;20254;-81
2021/10/14 03:40:43;;;;;;;8.63;5.23;;;11.20;99.90;;;;;;4996978;28;20177;-80
2021/10/14 03:43:08;;;;;;;9.50;6.60;;;11.20;99.90;;;;;;4997041;28;20179;-81
2021/10/14 03:45:34;;;;;;;9.13;4.80;;;11.20;99.90;;;;;;5014554;28;20622;-81
2021/10/14 03:48:00;;;;;;;6.77;3.73;;;11.30;99.90;;;;;;5014168;28;20179;-81
2021/10/14 03:50:26;;;;;;;6.03;4.70;;;11.10;99.90;;;;;;5014368;28;20181;-80
2021/10/14 03:52:51;;;;;;;8.50;4.70;;;11.30;99.90;;;;;;5014170;28;20191;-80
2021/10/14 03:55:17;;;;;;;6.50;4.50;;;11.30;99.90;;;;;;4996686;28;20253;-80
2021/10/14 03:57:43;;;;;;;8.17;5.57;;;11.20;99.90;;;;;;5014226;28;20187;-81
2021/10/14 04:00:10;;;;;;;5.30;3.80;;;11.20;99.90;;;;;;5014339;28;20179;-81
2021/10/14 04:02:35;;;;;;;8.47;4.70;;;11.30;99.90;;;;;;5014135;28;20413;-81
2021/10/14 04:05:01;;;;;;;8.00;5.17;;;11.30;99.90;;;;;;5013826;28;20423;-81
2021/10/14 04:07:27;;;;;;;7.47;5.17;;;11.30;99.90;;;;;;5014163;28;20199;-80
2021/10/14 04:09:53;;;;;;;8.23;3.60;;;11.30;99.90;;;;;;5014029;28;20908;-80
2021/10/14 04:12:19;;;;;;;6.03;3.17;;;11.30;99.90;;;;;;5013640;28;20175;-81
2021/10/14 04:14:44;;;;;;;6.43;4.20;;;11.30;99.90;;;;;;5014056;28;20725;-80
2021/10/14 04:17:10;;;;;;;5.77;3.63;;;11.30;99.90;;;;;;5014040;28;20236;-81
2021/10/14 04:19:35;;;;;;;6.87;4.23;;;11.40;99.90;;;;;;5013646;28;20187;-81
2021/10/14 04:22:01;;;;;;;5.67;3.50;;;11.40;99.90;;;;;;5013624;28;20220;-80
2021/10/14 04:24:28;;;;;;;7.17;4.23;;;11.30;99.90;;;;;;5013832;28;20620;-80
2021/10/14 04:26:54;;;;;;;5.53;3.93;;;11.40;99.90;;;;;;5013898;28;20189;-80
2021/10/14 04:29:20;;;;;;;3.97;2.00;;;11.40;99.90;;;;;;5013849;28;20419;-81
2021/10/14 04:31:49;;;;;;;5.63;3.80;;;11.40;99.90;;;;;;4996126;28;20920;-81
2021/10/14 04:34:16;;;;;;;3.70;2.47;;;11.40;99.90;;;;;;5013307;28;20207;-81
2021/10/14 04:36:41;;;;;;;3.17;1.83;;;11.30;99.90;;;;;;5013618;28;20500;-81
2021/10/14 04:39:07;;;;;;;6.50;1.73;;;11.40;99.90;;;;;;4995818;28;20886;-80
2021/10/14 04:41:33;;;;;;;3.47;2.20;;;11.40;99.90;;;;;;5013683;28;20166;-80
2021/10/14 04:43:59;;;;;;;3.00;1.47;;;11.40;99.90;;;;;;4995714;28;20780;-80
2021/10/14 04:46:25;;;;;;;3.20;1.20;;;11.50;99.90;;;;;;5013337;28;20411;-80
2021/10/14 04:48:51;;;;;;;2.57;0.80;;;11.50;99.90;;;;;;5013204;28;20172;-80
2021/10/14 04:51:17;;;;;;;3.90;0.83;;;11.40;99.90;;;;;;4995801;28;20418;-81
2021/10/14 04:53:42;;;;;;;4.37;0.93;;;11.50;99.90;;;;;;5013387;28;20207;-80
2021/10/14 04:56:08;;;;;;;1.33;0.60;;;11.50;99.90;;;;;;5013501;28;20446;-80
2021/10/14 04:58:34;;;;;;;1.17;0.40;;;11.60;99.90;;;;;;5013319;28;20537;-80
2021/10/14 05:00:59;;;;;;;1.40;0.80;;;11.60;99.90;;;;;;5013376;28;20182;-81
2021/10/14 05:03:25;;;;;;;1.50;0.37;;;11.60;99.90;;;;;;5013080;28;20176;-80
2021/10/14 05:05:50;;;;;;;1.20;0.40;;;11.60;99.90;;;;;;5013236;28;20261;-80
2021/10/14 05:08:16;;;;;;;0.60;0.20;;;11.60;99.90;;;;;;5013335;28;20182;-80
2021/10/14 05:10:42;;;;;;;1.90;0.47;;;11.60;99.90;;;;;;5013244;28;20180;-80
2021/10/14 05:13:08;;;;;;;1.90;0.50;;;11.70;99.90;;;;;;5013208;28;20661;-80
2021/10/14 05:15:37;;;;;;;1.00;0.43;;;11.70;99.90;;;;;;5013224;28;20228;-80
2021/10/14 05:18:03;;;;;;;4.63;0.90;;;11.70;99.90;;;;;;5012801;28;20412;-80
2021/10/14 05:20:29;;;;;;;3.13;1.13;;;11.70;99.90;;;;;;5013015;28;20450;-80
2021/10/14 05:22:56;;;;;;;2.20;0.50;;;11.80;99.90;;;;;;5013147;28;20473;-80
2021/10/14 05:25:21;;;;;;;2.90;1.50;;;11.70;99.90;;;;;;5016378;28;20451;-81
2021/10/14 05:27:47;;;;;;;3.47;1.23;;;11.70;99.90;;;;;;5017156;28;20184;-80
2021/10/14 05:30:12;;;;;;;3.10;1.20;;;11.80;99.90;;;;;;5017004;28;20234;-80
2021/10/14 05:32:38;;;;;;;5.17;1.30;;;11.80;99.90;;;;;;5016664;28;20174;-80
2021/10/14 05:35:04;;;;;;;4.63;1.90;;;11.80;99.90;;;;;;5016916;28;20235;-81
2021/10/14 05:37:30;;;;;;;6.30;2.57;;;11.80;99.90;;;;;;5016917;28;20219;-80
2021/10/14 05:39:56;;;;;;;6.20;2.37;;;11.80;99.90;;;;;;5016904;28;20428;-80
2021/10/14 05:42:21;;;;;;;3.70;1.67;;;11.80;99.90;;;;;;4999358;28;20193;-80
2021/10/14 05:44:47;;;;;;;5.30;3.27;;;11.80;99.90;;;;;;4999329;28;20807;-80
2021/10/14 05:47:13;;;;;;;5.87;3.20;;;11.90;99.90;;;;;;5016721;28;20653;-80
2021/10/14 05:49:39;;;;;;;6.80;2.93;;;11.90;99.90;;;;;;5016258;28;20458;-80
2021/10/14 05:52:05;;;;;;;9.80;5.00;;;11.90;99.90;;;;;;5016622;28;20180;-80
2021/10/14 05:54:31;;;;;;;7.47;3.87;;;12.00;99.90;;;;;;5016484;28;20214;-80
2021/10/14 05:56:58;;;;;;;9.93;5.33;;;12.00;99.90;;;;;;5016499;28;20430;-81
2021/10/14 05:59:24;;;;;;;8.00;5.17;;;12.00;99.90;;;;;;5016626;28;20675;-81
2021/10/14 06:01:50;;;;;;;9.60;4.90;;;12.00;99.90;;;;;;5016440;28;20415;-81
2021/10/14 06:04:15;;;;;;;13.97;6.10;;;12.00;99.90;;;;;;5016051;28;20435;-80
2021/10/14 06:06:41;;;;;;;10.73;5.63;;;12.00;99.90;;;;;;5016315;28;20179;-80
2021/10/14 06:09:07;;;;;;;10.10;6.03;;;12.10;99.90;;;;;;5016267;28;20185;-81
2021/10/14 06:11:35;;;;;;;9.40;4.97;;;12.10;99.90;;;;;;5016336;28;20645;-81
2021/10/14 06:14:01;;;;;;;10.80;5.20;;;12.10;99.90;;;;;;5016141;28;20242;-80
2021/10/14 06:16:26;;;;;;;12.70;5.50;;;12.10;99.90;;;;;;5016143;28;20462;-81
2021/10/14 06:18:52;;;;;;;15.13;5.50;;;12.10;99.90;;;;;;5015786;28;20175;-81
2021/10/14 06:21:17;;;;;;;9.60;5.10;;;12.10;99.90;;;;;;5015845;28;20229;-81
2021/10/14 06:23:43;;;;;;;8.87;5.30;;;12.10;99.90;;;;;;5015993;28;20172;-80
2021/10/14 06:26:12;;;;;;;9.67;5.07;;;12.10;99.90;;;;;;5016086;28;20183;-81
2021/10/14 06:28:38;;;;;;;14.53;5.93;;;12.10;99.90;;;;;;5015995;28;20220;-81
2021/10/14 06:31:03;;;;;;;8.83;5.27;;;12.10;99.90;;;;;;5015975;28;20446;-81
2021/10/14 06:33:29;;;;;;;11.53;5.30;;;12.20;99.90;;;;;;5015405;28;20447;-81
2021/10/14 06:35:55;;;;;;;8.13;5.03;;;12.20;99.90;;;;;;5015498;28;20169;-81
2021/10/14 06:38:20;;;;;;;8.70;4.40;;;12.20;99.90;;;;;;5015789;28;20173;-81
2021/10/14 06:40:46;;;;;;;7.87;5.10;;;12.10;99.90;;;;;;4998190;28;20179;-81
2021/10/14 06:43:11;;;;;;;8.60;5.77;;;12.20;99.90;;;;;;5015780;28;20177;-81
2021/10/14 06:45:37;;;;;;;9.53;5.50;;;12.20;99.90;;;;;;4993901;28;20177;-82
2021/10/14 06:48:03;;;;;;;10.10;5.73;;;12.20;99.90;;;;;;5005818;28;20182;-81
2021/10/14 06:50:30;;;;;;;11.27;5.47;;;12.20;99.90;;;;;;5015050;28;20207;-81
2021/10/14 06:52:55;;;;;;;8.40;5.67;;;12.20;99.90;;;;;;5015302;28;20826;-81
2021/10/14 06:55:21;;;;;;;9.53;5.43;;;12.30;99.90;;;;;;5015229;28;20479;-82
2021/10/14 06:57:50;;;;;;;10.43;5.53;;;12.30;99.90;;;;;;4997631;28;20672;-81
2021/10/14 07:00:19;;;;;;;6.63;3.90;;;12.40;99.90;;;;;;5015074;28;20543;-82
2021/10/14 07:02:45;;;;;;;8.23;5.13;;;12.30;99.90;;;;;;5014753;28;20468;-81
2021/10/14 07:05:10;;;;;;;10.43;5.00;;;12.30;99.90;;;;;;5015007;28;20936;-81
2021/10/14 07:07:36;;;;;;;9.10;4.13;;;12.30;99.90;;;;;;5015014;28;20168;-82
2021/10/14 07:10:02;;;;;;;8.87;5.50;;;12.30;99.90;;;;;;5014945;28;20272;-82
2021/10/14 07:12:29;;;;;;;14.60;7.10;;;12.40;99.90;;;;;;4997362;28;20709;-82
2021/10/14 07:14:55;;;;;;;9.90;4.77;;;12.40;99.90;;;;;;5014788;28;20843;-81
2021/10/14 07:17:21;;;;;;;9.87;5.57;;;12.40;99.90;;;;;;5014321;28;20407;-81
2021/10/14 07:19:47;;;;;;;14.80;5.20;;;12.40;99.90;;;;;;4997279;28;20467;-83
2021/10/14 07:22:12;;;;;;;12.20;4.93;;;12.50;99.90;;;;;;4999569;28;20545;-82
2021/10/14 07:24:38;;;;;;;7.27;4.27;;;12.50;99.90;;;;;;4995097;28;20623;-83
2021/10/14 07:27:07;;;;;;;7.10;4.27;;;12.60;99.90;;;;;;4995123;28;20171;-82
2021/10/14 07:29:33;;;;;;;6.57;5.30;;;12.60;99.90;;;;;;4995025;28;20891;-82
2021/10/14 07:31:59;;;;;;;4.80;3.53;;;12.80;99.90;;;;;;4977486;28;20426;-82
2021/10/14 07:34:25;;;;;;;5.93;3.80;;;12.90;99.90;;;;;;4994425;28;20850;-82
2021/10/14 07:36:51;;;;;;;11.23;4.10;;;12.90;99.90;;;;;;4995012;28;20634;-81
2021/10/14 07:39:17;;;;;;;5.80;3.43;;;12.90;99.90;;;;;;4995004;28;20203;-82
2021/10/14 07:41:44;;;;;;;4.97;2.70;;;12.90;99.90;;;;;;4994925;28;20505;-84
2021/10/14 07:44:10;;;;;;;8.53;3.77;;;12.90;99.90;;;;;;4994825;28;20420;-79
2021/10/14 07:46:37;;;;;;;6.97;3.20;;;12.80;99.90;;;;;;4993691;28;20811;-82
2021/10/14 07:49:03;;;;;;;5.83;2.20;;;12.00;99.90;;;;;;4994219;28;20164;-81
2021/10/14 07:51:29;;;;;;;8.47;4.03;;;12.80;99.90;;;;;;4994534;28;20418;-80
2021/10/14 07:53:55;;;;;;;7.53;3.23;;;12.80;99.90;;;;;;4994525;28;20471;-80
2021/10/14 07:56:21;;;;;;;6.53;3.10;;;12.80;99.90;;;;;;4993064;28;20238;-80
2021/10/14 07:58:46;;;;;;;10.27;4.40;;;12.80;99.90;;;;;;4993600;28;20413;-81
2021/10/14 08:01:15;;;;;;;7.47;3.30;;;12.90;99.90;;;;;;4994680;28;20173;-80
2021/10/14 08:03:41;;;;;;;8.67;3.03;;;12.90;99.90;;;;;;4994313;28;20174;-80
2021/10/14 08:06:06;;;;;;;5.93;2.37;;;13.00;99.90;;;;;;4994595;28;20414;-80
2021/10/14 08:08:32;;;;;;;7.93;3.57;;;13.00;99.90;;;;;;4976948;28;20185;-81
2021/10/14 08:10:58;;;;;;;6.10;3.00;;;12.90;99.90;;;;;;4994169;28;20210;-81
2021/10/14 08:13:24;;;;;;;5.30;2.33;;;12.90;99.90;;;;;;4994355;28;20199;-81
2021/10/14 08:15:50;;;;;;;9.40;3.60;;;12.90;99.90;;;;;;4994441;28;20178;-80
2021/10/14 08:18:23;;;;;;;5.80;3.37;;;12.90;99.90;;;;;;4994036;28;20774;-80
2021/10/14 08:20:49;;;;;;;5.13;2.83;;;13.00;99.90;;;;;;4994248;28;20448;-81
2021/10/14 08:23:16;;;;;;;6.80;3.10;;;12.90;99.90;;;;;;4994303;28;20449;-80
2021/10/14 08:25:42;;;;;;;8.10;4.70;;;12.90;99.90;;;;;;4994279;28;20910;-81
2021/10/14 08:28:08;;;;;;;7.43;3.93;;;13.10;99.90;;;;;;4994212;28;20528;-81
2021/10/14 08:30:34;;;;;;;8.70;3.07;;;13.00;99.90;;;;;;4976608;28;20235;-80
2021/10/14 08:32:59;;;;;;;9.93;4.20;;;13.00;99.90;;;;;;4993935;28;20175;-80
2021/10/14 08:35:25;;;;;;;9.00;4.60;;;13.00;99.90;;;;;;4976687;28;20259;-81
2021/10/14 08:37:51;;;;;;;9.60;4.30;;;13.00;99.90;;;;;;4993930;28;20249;-80
2021/10/14 08:40:16;;;;;;;6.27;3.33;;;13.10;99.90;;;;;;4972314;28;20208;-80
2021/10/14 08:42:43;;;;;;;10.83;3.27;;;13.10;99.90;;;;;;5001797;28;20196;-81
2021/10/14 08:45:11;;;;;;;5.43;2.63;;;13.10;99.90;;;;;;4995420;28;20190;-81
2021/10/14 08:47:38;;;;;;;5.17;3.40;;;13.20;99.90;;;;;;4993450;28;20414;-81
2021/10/14 08:50:05;;;;;;;7.33;2.60;;;13.20;99.90;;;;;;4993504;28;20419;-81
2021/10/14 08:52:31;;;;;;;5.27;2.23;;;13.20;99.90;;;;;;4993366;28;20414;-80
2021/10/14 08:54:57;;;;;;;3.57;2.50;;;13.30;99.90;;;;;;4993554;28;20994;-81
2021/10/14 08:57:23;;;;;;;6.03;3.40;;;13.30;99.90;;;;;;4993487;28;20411;-81
2021/10/14 08:59:49;;;;;;;7.27;3.13;;;13.40;99.90;;;;;;4993591;28;20422;-81
2021/10/14 09:02:19;;;;;;;4.37;2.90;;;13.50;99.90;;;;;;4993214;28;20428;-81
2021/10/14 09:04:48;;;;;;;3.40;3.10;;;13.50;99.90;;;;;;4993493;28;20193;-81
2021/10/14 09:07:19;;;;;;;6.70;3.00;;;13.40;99.90;;;;;;4993466;28;20926;-83
2021/10/14 09:09:47;;;;;;;3.63;2.50;;;13.40;99.90;;;;;;4993468;28;20440;-86
2021/10/14 09:12:15;;;;;;;7.93;3.40;;;13.40;99.90;;;;;;4993646;28;20512;-88
2021/10/14 09:15:15;;;;;;;6.00;3.13;;;13.40;99.90;;;;;;4977855;28;20480;-87
2021/10/14 09:17:48;;;;;;;4.23;2.53;;;13.50;99.90;;;;;;5000711;28;20414;-93
2021/10/14 09:20:30;;;;;;;5.43;3.30;;;13.50;99.90;;;;;;4976917;28;20469;-86
2021/10/14 09:23:02;;;;;;;5.00;2.60;;;13.80;99.90;;;;;;4993508;28;20500;-88
2021/10/14 09:25:34;;;;;;;4.93;2.33;;;13.90;99.90;;;;;;4994452;28;20429;-80
2021/10/14 09:28:18;;;;;;;3.80;1.77;;;13.80;99.90;;;;;;4993801;28;20453;-86
2021/10/14 09:30:51;;;;;;;2.63;1.00;;;13.90;99.90;;;;;;4993257;28;20415;-86
2021/10/14 09:33:29;;;;;;;4.30;1.67;;;14.00;99.90;;;;;;4993064;28;20470;-87
2021/10/14 09:35:56;;;;;;;1.30;0.87;;;13.90;99.90;;;;;;4976522;28;20431;-88
2021/10/14 09:38:34;;;;;;;2.90;0.83;;;14.10;99.90;;;;;;4993461;28;20417;-86
2021/10/14 09:41:02;;;;;;;1.43;0.47;;;14.30;99.90;;;;;;4993365;28;20419;-81
2021/10/14 09:43:27;;;;;;;1.63;0.63;;;14.50;99.90;;;;;;4991522;28;21058;-80
2021/10/14 09:45:53;;;;;;;5.67;1.00;;;14.70;99.90;;;;;;4991016;28;20515;-84
2021/10/14 09:48:19;;;;;;;1.33;0.97;;;14.70;99.90;;;;;;4990925;28;20576;-82
2021/10/14 09:50:46;;;;;;;1.27;0.43;;;14.70;99.90;;;;;;4993158;28;20573;-83
2021/10/14 09:53:23;;;;;;;2.80;0.93;;;14.80;99.90;;;;;;4976000;28;20207;-84
2021/10/14 09:55:50;;;;;;;2.53;0.57;;;14.40;99.90;;;;;;4993094;28;20432;-82
2021/10/14 09:58:16;;;;;;;0.93;0.50;;;14.30;99.90;;;;;;4995182;28;20514;-88
2021/10/14 10:00:49;;;;;;;1.57;0.50;;;14.20;99.90;;;;;;4993485;28;20430;-80
2021/10/14 10:03:16;;;;;;;0.70;0.20;;;13.90;99.90;;;;;;4992806;28;20961;-82
2021/10/14 10:05:47;;;;;;;0.67;0.20;;;13.80;99.90;;;;;;4993220;28;20422;-82
2021/10/14 10:08:21;;;;;;;0.90;0.30;;;13.60;99.90;;;;;;4993372;28;20484;-82
2021/10/14 10:10:48;;;;;;;1.93;0.73;;;13.80;99.90;;;;;;4995157;28;20405;-87
2021/10/14 10:13:16;;;;;;;1.57;0.47;;;14.00;99.90;;;;;;4996532;28;20419;-82
2021/10/14 10:15:47;;;;;;;2.17;1.00;;;13.70;99.90;;;;;;4996464;28;20421;-83
2021/10/14 10:18:28;;;;;;;2.87;0.93;;;13.70;99.90;;;;;;4996432;28;20631;-84
2021/10/14 10:20:55;;;;;;;2.60;0.40;;;13.50;99.90;;;;;;4996385;28;20601;-83
2021/10/14 10:23:43;;;;;;;1.77;0.57;;;13.60;99.90;;;;;;4996727;28;20429;-81
2021/10/14 10:26:36;;;;;;;1.50;1.10;;;13.60;99.90;;;;;;4996223;28;20449;-80
2021/10/14 10:29:12;;;;;;;1.43;0.63;;;13.50;99.90;;;;;;4996421;28;20410;-83
2021/10/14 10:31:53;;;;;;;1.97;0.80;;;13.30;99.90;;;;;;4996488;28;20491;-83
2021/10/14 10:37:38;;;;;;;2.43;1.10;;;13.40;99.90;;;;;;4962977;28;20509;-84
2021/10/14 10:40:16;;;;;;;2.57;1.50;;;13.40;99.90;;;;;;4996069;28;20415;-85
2021/10/14 10:42:49;;;;;;;2.90;1.17;;;13.30;99.90;;;;;;4995831;28;20814;-85
2021/10/14 10:45:21;;;;;;;2.93;0.87;;;13.40;99.90;;;;;;4996059;28;20425;-85
2021/10/14 10:47:49;;;;;;;3.30;1.43;;;13.40;99.90;;;;;;4995725;28;20406;-83
2021/10/14 10:50:21;;;;;;;3.63;1.67;;;13.40;99.90;;;;;;4995934;28;20414;-83
2021/10/14 10:52:59;;;;;;;5.90;2.27;;;13.80;99.90;;;;;;4996004;28;20412;-81
2021/10/14 10:55:24;;;;;;;2.37;1.60;;;13.50;99.90;;;;;;4995824;28;20481;-84
2021/10/14 10:57:52;;;;;;;3.23;1.73;;;13.50;99.90;;;;;;4995655;28;20767;-82
2021/10/14 11:00:20;;;;;;;4.00;1.63;;;13.40;99.90;;;;;;4995842;28;20189;-81
2021/10/14 11:03:05;;;;;;;3.40;2.00;;;13.30;99.90;;;;;;4995480;28;20417;-82
2021/10/14 11:05:49;;;;;;;4.67;3.07;;;13.20;99.90;;;;;;4995826;28;20411;-82
2021/10/14 11:08:23;;;;;;;8.17;3.90;;;13.20;99.90;;;;;;4978184;28;20822;-82
2021/10/14 11:10:52;;;;;;;4.37;3.27;;;13.10;99.90;;;;;;4995537;28;20425;-82
2021/10/14 11:13:18;;;;;;;5.83;2.90;;;13.20;99.90;;;;;;4995332;28;20421;-81
2021/10/14 11:15:48;;;;;;;5.50;3.67;;;13.10;99.90;;;;;;4995538;28;20437;-82
2021/10/14 11:18:14;;;;;;;4.77;3.00;;;13.00;99.90;;;;;;4995241;28;20483;-81
2021/10/14 11:20:51;;;;;;;8.23;4.10;;;13.10;99.90;;;;;;4995018;28;20820;-82
2021/10/14 11:23:17;;;;;;;2.40;1.50;;;13.20;99.90;;;;;;4994660;28;20180;-82
2021/10/14 11:25:43;;;;;;;2.90;1.20;;;13.00;99.90;;;;;;4995006;28;20874;-82
2021/10/14 11:28:10;;;;;;;2.20;1.23;;;12.90;99.90;;;;;;4994811;28;20177;-81
2021/10/14 11:30:46;;;;;;;3.93;1.17;;;13.00;99.90;;;;;;4995111;28;20413;-83
2021/10/14 11:33:32;;;;;;;4.13;0.93;;;12.90;99.90;;;;;;4994749;28;20430;-82
2021/10/14 11:36:07;;;;;;;2.03;0.80;;;13.00;99.90;;;;;;4995158;28;20417;-82
2021/10/14 11:38:34;;;;;;;3.30;0.60;;;13.00;99.90;;;;;;4977772;28;20926;-81
2021/10/14 11:41:01;;;;;;;2.50;0.60;;;13.10;99.90;;;;;;4995018;28;20415;-83
2021/10/14 11:43:29;;;;;;;3.13;1.00;;;13.10;99.90;;;;;;4994992;28;20410;-81
2021/10/14 11:45:57;;;;;;;4.33;1.10;;;13.10;99.90;;;;;;4994947;28;20453;-82
2021/10/14 11:48:34;;;;;;;2.23;0.50;;;13.00;99.90;;;;;;4994640;28;20437;-81
2021/10/14 11:51:10;;;;;;;2.03;1.00;;;13.00;99.90;;;;;;4994949;28;20983;-82
2021/10/14 11:53:37;;;;;;;2.90;1.23;;;12.90;99.90;;;;;;4994734;28;20510;-81
2021/10/14 11:56:06;;;;;;;4.90;1.23;;;13.00;99.90;;;;;;4994565;28;20429;-81
2021/10/14 11:58:33;;;;;;;3.40;1.27;;;12.90;99.90;;;;;;4977307;28;20419;-82
2021/10/14 12:01:12;;;;;;;4.23;0.47;;;12.80;99.90;;;;;;4961098;28;20864;-82
2021/10/14 12:03:39;;;;;;;4.00;0.50;;;13.00;99.90;;;;;;4994234;28;20419;-82
2021/10/14 12:06:07;;;;;;;3.83;1.20;;;12.90;99.90;;;;;;4976919;28;20584;-83
2021/10/14 12:08:33;;;;;;;3.60;1.23;;;13.00;99.90;;;;;;4994472;28;20540;-81
2021/10/14 12:10:59;;;;;;;3.10;0.70;;;13.00;99.90;;;;;;4994329;28;20899;-81
2021/10/14 12:13:27;;;;;;;2.17;0.63;;;13.20;99.90;;;;;;4976917;28;20443;-81
2021/10/14 12:16:10;;;;;;;1.70;0.93;;;13.80;99.90;;;;;;4994360;28;20255;-81
2021/10/14 12:18:36;;;;;;;4.13;1.13;;;13.80;99.90;;;;;;4993872;28;20470;-82
2021/10/14 12:21:03;;;;;;;2.67;1.13;;;14.20;99.90;;;;;;4994086;28;20493;-82
2021/10/14 12:23:30;;;;;;;2.97;0.70;;;14.30;99.90;;;;;;4976789;28;20827;-81
2021/10/14 12:26:13;;;;;;;2.30;1.30;;;14.30;99.90;;;;;;4994169;28;20950;-81
2021/10/14 12:28:41;;;;;;;1.93;1.20;;;13.50;99.90;;;;;;4994063;28;20419;-81
2021/10/14 12:31:12;;;;;;;3.93;2.03;;;14.20;99.90;;;;;;4994071;28;20940;-82
2021/10/14 12:33:39;;;;;;;2.77;1.03;;;14.10;99.90;;;;;;4993237;28;20494;-82
2021/10/14 12:36:04;;;;;;;4.50;1.87;;;14.30;99.90;;;;;;4993913;28;20427;-82
2021/10/14 12:38:38;;;;;;;6.40;2.07;;;14.10;99.90;;;;;;4993934;28;20466;-81
2021/10/14 12:41:06;;;;;;;5.43;2.60;;;14.20;99.90;;;;;;4993874;28;20348;-82
2021/10/14 12:43:46;;;;;;;4.17;2.20;;;14.30;99.90;;;;;;4993850;28;20478;-82
2021/10/14 12:51:44;;;;;;;4.53;2.67;;;14.30;99.90;;;;;;4993706;28;20432;-82
2021/10/14 12:54:14;;;;;;;4.30;2.10;;;14.20;99.90;;;;;;4993520;28;20868;-82
2021/10/14 12:56:42;;;;;;;7.03;1.80;;;14.20;99.90;;;;;;4993522;28;20422;-82